IS-0001 weather

Suðureyri Airstrip
Suðureyri, Westfjords, Iceland

Public forecast

Using degrees Celsius for public forecast. Weather courtesy of forecast.io.

METAR (pilot weather report)

Closest report is Ísafjörður Airport, 10.9 nm (20.2 km) ESE. Retrieved 2019/06/19 16:00 UTC (5 minutes ago):

BIIS 191600Z 06018KT 9999 FEW020 09/04 Q1010

TAF (pilot weather forecast)

Closest forecast is Akureyri Airport, 137.1 nm (253.9 km) E. Retrieved 2019/06/19 15:33 UTC (32 minutes ago):

TAF TAF BIAR 191327Z 1915/2015 34012KT 9999 -RADZ FEW015 BKN035 OVC050 TX08/1915Z TN03/2003Z PROB40 TEMPO 1915/2015 5000 RADZ BKN010 OVC020